Time;durP1;ratioP1;P1;durP2;ratioP2;P2;SDS_P1;SDS_P2;PMS_P1;PMS_P2;Temp;Humidity;BMP_temperature;BMP_pressure;BME280_temperature;BME280_humidity;BME280_pressure;Samples;Min_cycle;Max_cycle;Signal;HPM_P1;HPM_P2
2022/07/11 00:01:11;;;;;;;6.85;5.10;;;;;;;21.17;53.73;100333.66;5041017;28;20136;-69
2022/07/11 00:03:38;;;;;;;15.68;6.22;;;;;;;21.12;53.73;100325.38;5048952;28;20053;-72
2022/07/11 00:06:05;;;;;;;11.77;5.40;;;;;;;21.22;53.86;100341.91;5044074;28;20056;-72
2022/07/11 00:08:32;;;;;;;12.38;5.05;;;;;;;21.07;53.48;100319.94;5038320;28;20084;-70
2022/07/11 00:10:59;;;;;;;13.50;5.65;;;;;;;21.11;53.75;100337.91;5045462;28;20131;-71
2022/07/11 00:13:26;;;;;;;11.13;4.82;;;;;;;21.14;53.61;100339.22;5035398;28;20050;-71
2022/07/11 00:15:53;;;;;;;17.10;6.00;;;;;;;20.87;54.00;100276.34;5049815;28;20072;-72
2022/07/11 00:18:20;;;;;;;8.57;4.70;;;;;;;21.29;53.86;100322.25;5053209;28;20503;-71
2022/07/11 00:20:46;;;;;;;10.40;4.68;;;;;;;21.36;53.38;100327.38;5039928;28;20076;-69
2022/07/11 00:23:14;;;;;;;14.07;5.82;;;;;;;21.22;53.65;100305.00;5051438;28;20128;-69
2022/07/11 00:25:40;;;;;;;14.52;4.32;;;;;;;21.25;53.46;100290.09;5042797;28;20079;-70
2022/07/11 00:28:07;;;;;;;8.20;4.63;;;;;;;21.37;53.16;100316.81;5038094;28;20072;-71
2022/07/11 00:30:34;;;;;;;8.05;4.72;;;;;;;21.19;53.59;100314.22;5043862;28;20055;-69
2022/07/11 00:33:01;;;;;;;11.13;4.20;;;;;;;21.01;53.42;100302.31;5037785;28;20123;-70
2022/07/11 00:35:28;;;;;;;11.98;4.63;;;;;;;20.80;53.54;100274.09;5038743;28;20477;-67
2022/07/11 00:37:54;;;;;;;13.40;4.30;;;;;;;20.88;53.57;100295.00;5035459;28;20591;-67
2022/07/11 00:40:21;;;;;;;10.68;4.25;;;;;;;20.84;53.60;100299.75;5039704;28;20056;-69
2022/07/11 00:42:49;;;;;;;12.38;5.25;;;;;;;20.82;53.66;100285.94;5044401;28;20073;-70
2022/07/11 00:45:16;;;;;;;9.57;4.35;;;;;;;20.54;53.33;100251.75;5038065;28;20128;-69
2022/07/11 00:47:43;;;;;;;11.23;5.10;;;;;;;20.77;53.77;100293.84;5045466;28;20139;-69
2022/07/11 00:50:10;;;;;;;8.07;5.15;;;;;;;20.70;54.01;100276.59;5036636;28;20516;-70
2022/07/11 00:52:37;;;;;;;14.02;4.90;;;;;;;20.84;53.77;100305.44;5042041;28;20133;-70
2022/07/11 00:55:06;;;;;;;10.35;4.72;;;;;;;20.69;54.07;100258.75;5031115;28;20045;-71
2022/07/11 00:57:33;;;;;;;6.47;4.07;;;;;;;20.79;53.82;100272.44;5036357;28;20089;-69
2022/07/11 01:00:01;;;;;;;10.90;5.50;;;;;;;20.51;53.68;100232.63;5043252;28;20128;-69
2022/07/11 01:02:28;;;;;;;8.98;4.30;;;;;;;20.76;53.76;100278.84;5036202;28;20124;-70
2022/07/11 01:04:55;;;;;;;13.93;4.63;;;;;;;20.68;53.94;100262.75;5034575;28;20139;-69
2022/07/11 01:07:22;;;;;;;9.25;4.85;;;;;;;20.69;53.95;100269.28;5042363;28;20045;-69
2022/07/11 01:09:50;;;;;;;16.00;5.13;;;;;;;20.77;54.09;100245.59;5043512;28;20172;-68
2022/07/11 01:12:17;;;;;;;9.23;5.03;;;;;;;20.79;54.06;100246.09;5039615;28;20124;-69
2022/07/11 01:14:55;;;;;;;11.93;5.63;;;;;;;20.91;53.79;100231.03;5038853;28;20056;-68
2022/07/11 01:17:22;;;;;;;11.48;5.22;;;;;;;20.88;53.67;100234.56;5048559;28;20419;-69
2022/07/11 01:19:49;;;;;;;13.88;4.88;;;;;;;20.78;53.59;100233.06;5042362;28;20081;-69
2022/07/11 01:22:20;;;;;;;8.25;4.82;;;;;;;20.87;53.83;100256.47;5039290;28;20072;-69
2022/07/11 01:24:47;;;;;;;10.57;4.75;;;;;;;20.69;53.82;100223.88;5037496;28;20083;-69
2022/07/11 01:27:15;;;;;;;9.90;4.72;;;;;;;20.90;53.74;100252.09;5037407;28;20132;-70
2022/07/11 01:29:42;;;;;;;10.07;5.18;;;;;;;20.86;53.78;100254.81;5049257;28;20095;-70
2022/07/11 01:32:09;;;;;;;11.70;5.28;;;;;;;20.91;53.86;100265.09;5040609;28;20081;-70
2022/07/11 01:34:36;;;;;;;15.88;4.95;;;;;;;20.32;53.79;100164.31;5040470;28;20091;-70
2022/07/11 01:37:03;;;;;;;12.73;5.30;;;;;;;20.80;53.92;100259.91;5038263;28;20572;-70
2022/07/11 01:39:29;;;;;;;10.45;5.20;;;;;;;20.73;54.20;100250.34;5039242;28;20167;-69
2022/07/11 01:41:57;;;;;;;13.35;5.68;;;;;;;20.44;53.99;100191.81;5041592;28;20495;-68
2022/07/11 01:44:25;;;;;;;14.02;5.90;;;;;;;20.64;54.07;100216.41;5037111;28;20128;-71
2022/07/11 01:46:51;;;;;;;10.05;4.50;;;;;;;20.78;54.44;100233.06;5041485;28;20480;-71
2022/07/11 01:49:19;;;;;;;10.93;5.10;;;;;;;20.66;53.88;100207.56;5043034;28;20127;-71
2022/07/11 01:51:47;;;;;;;10.88;5.57;;;;;;;20.76;54.05;100224.09;5035506;28;20567;-71
2022/07/11 01:54:14;;;;;;;11.25;5.72;;;;;;;20.51;54.42;100212.78;5040715;28;20133;-70
2022/07/11 01:56:41;;;;;;;11.85;5.75;;;;;;;20.63;54.41;100219.63;5035482;28;20077;-71
2022/07/11 01:59:08;;;;;;;14.02;5.45;;;;;;;20.58;54.27;100220.66;5039899;28;20136;-72
2022/07/11 02:01:35;;;;;;;8.35;5.20;;;;;;;20.60;54.23;100218.31;5038255;28;20559;-72
2022/07/11 02:04:02;;;;;;;12.85;5.45;;;;;;;20.57;54.34;100204.84;5043226;28;20049;-72
2022/07/11 02:06:29;;;;;;;17.73;6.57;;;;;;;20.59;54.36;100219.50;5041633;28;20128;-73
2022/07/11 02:08:56;;;;;;;12.00;5.10;;;;;;;20.53;54.49;100210.41;5038108;28;20094;-71
2022/07/11 02:11:23;;;;;;;15.10;5.53;;;;;;;20.49;54.19;100200.91;5041100;28;20475;-70
2022/07/11 02:13:50;;;;;;;11.27;4.85;;;;;;;20.50;54.56;100213.94;5042606;28;20045;-70
2022/07/11 02:16:18;;;;;;;11.80;5.85;;;;;;;20.55;54.55;100222.22;5045224;28;20092;-71
2022/07/11 02:18:45;;;;;;;11.60;5.63;;;;;;;20.52;54.43;100220.09;5041741;28;20076;-73
2022/07/11 02:21:12;;;;;;;15.32;6.10;;;;;;;20.41;54.32;100203.88;5040099;28;20136;-73
2022/07/11 02:23:39;;;;;;;13.15;5.60;;;;;;;20.40;54.44;100214.38;5037482;28;20099;-71
2022/07/11 02:26:06;;;;;;;13.60;5.05;;;;;;;19.97;54.56;100152.63;5040071;28;20053;-69
2022/07/11 02:28:34;;;;;;;14.25;6.50;;;;;;;20.29;54.84;100204.72;5035592;28;20088;-70
2022/07/11 02:31:01;;;;;;;11.00;5.97;;;;;;;20.19;54.79;100183.31;5045925;28;20470;-69
2022/07/11 02:33:28;;;;;;;13.40;5.97;;;;;;;20.20;54.79;100192.66;5044254;28;20053;-71
2022/07/11 02:35:54;;;;;;;16.88;5.75;;;;;;;20.24;55.14;100208.63;5044445;28;20140;-71
2022/07/11 02:38:21;;;;;;;13.95;6.40;;;;;;;20.27;55.26;100213.59;5036088;28;20776;-71
2022/07/11 02:40:48;;;;;;;11.52;5.40;;;;;;;20.31;55.24;100199.53;5041313;28;20068;-70
2022/07/11 02:43:15;;;;;;;16.80;6.18;;;;;;;20.30;55.12;100207.19;5042575;28;20047;-71
2022/07/11 02:45:43;;;;;;;13.75;5.90;;;;;;;20.40;55.16;100197.38;5041235;28;20053;-70
2022/07/11 02:48:10;;;;;;;10.10;5.22;;;;;;;20.44;55.34;100201.16;5046476;28;20107;-70
2022/07/11 02:50:37;;;;;;;12.02;5.55;;;;;;;20.32;55.45;100184.16;5043119;28;20480;-71
2022/07/11 02:53:03;;;;;;;16.80;6.63;;;;;;;20.54;55.18;100206.38;5043742;28;20069;-70
2022/07/11 02:55:31;;;;;;;15.13;6.03;;;;;;;20.51;55.49;100203.41;5047868;28;20135;-70
2022/07/11 02:57:58;;;;;;;19.92;5.85;;;;;;;20.53;55.24;100190.53;5047966;28;20060;-70
2022/07/11 03:00:25;;;;;;;14.35;6.50;;;;;;;20.52;55.17;100190.91;5042885;28;20080;-70
2022/07/11 03:02:53;;;;;;;11.65;6.60;;;;;;;20.55;54.96;100185.34;5042972;28;20059;-71
2022/07/11 03:05:20;;;;;;;14.98;6.82;;;;;;;20.47;55.08;100183.41;5045332;28;20081;-70
2022/07/11 03:07:47;;;;;;;14.57;6.43;;;;;;;20.47;55.23;100188.28;5040111;28;20063;-70
2022/07/11 03:10:14;;;;;;;17.00;7.13;;;;;;;20.51;55.38;100175.91;5041976;28;20149;-71
2022/07/11 03:12:41;;;;;;;9.13;5.88;;;;;;;20.39;55.21;100170.22;5043283;28;20199;-70
2022/07/11 03:15:09;;;;;;;14.18;6.00;;;;;;;20.48;55.44;100199.28;5046164;28;20077;-70
2022/07/11 03:17:36;;;;;;;13.65;6.82;;;;;;;20.40;55.36;100190.88;5046654;28;20045;-70
2022/07/11 03:20:04;;;;;;;11.77;6.40;;;;;;;20.41;55.56;100190.53;5042870;28;20132;-69
2022/07/11 03:22:31;;;;;;;13.35;5.10;;;;;;;20.40;55.52;100191.69;5046365;28;20128;-69
2022/07/11 03:25:00;;;;;;;10.60;5.50;;;;;;;20.38;55.41;100196.91;5047396;28;20551;-69
2022/07/11 03:27:27;;;;;;;10.82;6.00;;;;;;;20.34;55.54;100181.78;5044830;28;20095;-70
2022/07/11 03:29:53;;;;;;;13.45;5.97;;;;;;;20.23;55.66;100169.28;5048608;28;20167;-69
2022/07/11 03:32:22;;;;;;;12.63;6.82;;;;;;;20.31;55.70;100188.19;5045684;28;20041;-70
2022/07/11 03:37:40;;;;;;;11.23;5.68;;;;;;;19.78;55.94;100105.03;5037192;28;20565;-69
2022/07/11 03:40:08;;;;;;;11.68;6.35;;;;;;;20.19;55.62;100160.66;5047133;28;20098;-71
2022/07/11 03:42:35;;;;;;;16.00;6.53;;;;;;;20.21;55.92;100168.81;5044130;28;20104;-71
2022/07/11 03:45:02;;;;;;;15.23;6.25;;;;;;;20.23;56.06;100160.75;5043926;28;20052;-71
2022/07/11 03:47:29;;;;;;;9.70;6.25;;;;;;;20.38;55.88;100179.09;5073907;28;20056;-72
2022/07/11 03:49:56;;;;;;;16.02;7.43;;;;;;;20.48;55.88;100175.75;5051241;28;20091;-71
2022/07/11 03:52:23;;;;;;;17.23;6.97;;;;;;;20.61;55.23;100165.22;5039549;28;20136;-71
2022/07/11 03:54:50;;;;;;;17.02;7.10;;;;;;;20.68;54.96;100171.94;5041690;28;20076;-70
2022/07/11 03:57:16;;;;;;;13.88;7.30;;;;;;;20.80;55.07;100185.28;5049309;28;20543;-70
2022/07/11 03:59:43;;;;;;;13.93;6.95;;;;;;;20.86;55.07;100183.03;5043003;28;20133;-70
2022/07/11 04:02:10;;;;;;;14.68;6.40;;;;;;;20.90;54.86;100187.63;5038019;28;20143;-70
2022/07/11 04:04:37;;;;;;;10.80;5.85;;;;;;;20.90;54.67;100190.47;5040247;28;20140;-70
2022/07/11 04:07:05;;;;;;;10.00;6.35;;;;;;;20.73;54.55;100173.72;5039362;28;20049;-69
2022/07/11 04:09:32;;;;;;;9.63;6.32;;;;;;;20.62;54.84;100167.72;5044039;28;20156;-72
2022/07/11 04:11:58;;;;;;;12.88;6.40;;;;;;;20.82;54.94;100191.44;5043542;28;20456;-73
2022/07/11 04:14:25;;;;;;;15.98;6.60;;;;;;;20.67;55.11;100166.66;5045477;28;20079;-74
2022/07/11 04:16:52;;;;;;;15.48;6.75;;;;;;;20.72;55.10;100175.75;5046129;28;20135;-73
2022/07/11 04:19:19;;;;;;;10.35;6.70;;;;;;;20.64;54.92;100175.88;5050143;28;20049;-72
2022/07/11 04:21:46;;;;;;;13.05;6.85;;;;;;;20.40;55.17;100137.81;5045642;28;20111;-72
2022/07/11 04:24:13;;;;;;;17.73;7.00;;;;;;;20.64;55.10;100178.69;5043813;28;20081;-75
2022/07/11 04:26:40;;;;;;;13.65;7.03;;;;;;;20.44;55.11;100147.25;5075296;28;20143;-74
2022/07/11 04:29:07;;;;;;;14.98;7.22;;;;;;;20.52;55.31;100174.72;5045583;28;20139;-74
2022/07/11 04:31:34;;;;;;;12.48;7.32;;;;;;;20.51;55.35;100160.88;5045633;28;20139;-72
2022/07/11 04:34:01;;;;;;;15.20;7.53;;;;;;;20.39;55.30;100158.88;5041525;28;20080;-73
2022/07/11 04:36:28;;;;;;;13.23;7.88;;;;;;;20.36;55.25;100153.91;5034416;28;20176;-74
2022/07/11 04:38:55;;;;;;;15.82;7.88;;;;;;;20.37;55.68;100181.06;5037070;28;20153;-73
2022/07/11 04:41:21;;;;;;;14.45;7.82;;;;;;;20.26;55.70;100162.88;5045021;28;20132;-73
2022/07/11 04:43:48;;;;;;;21.55;8.73;;;;;;;20.36;55.58;100176.59;5042653;28;20110;-72
2022/07/11 04:46:15;;;;;;;19.20;8.43;;;;;;;20.18;55.96;100155.34;5044684;28;20523;-72
2022/07/11 04:48:42;;;;;;;20.33;9.63;;;;;;;20.46;55.90;100181.78;5042915;28;20049;-71
2022/07/11 04:51:09;;;;;;;17.05;8.15;;;;;;;20.46;55.50;100152.59;5037800;28;20132;-72
2022/07/11 04:53:36;;;;;;;20.90;8.50;;;;;;;20.57;55.62;100177.28;5077009;28;20135;-71
2022/07/11 04:56:03;;;;;;;22.20;8.30;;;;;;;20.50;55.65;100171.41;5036829;28;20060;-73
2022/07/11 04:58:32;;;;;;;21.55;8.93;;;;;;;20.37;55.89;100158.38;5045892;28;20080;-72
2022/07/11 05:00:59;;;;;;;18.80;8.93;;;;;;;20.51;55.84;100161.72;5041825;28;20049;-71
2022/07/11 05:03:26;;;;;;;15.43;7.93;;;;;;;20.54;55.81;100169.50;5041266;28;20115;-72
2022/07/11 05:05:53;;;;;;;16.63;8.25;;;;;;;20.42;55.84;100166.66;5039387;28;20132;-70
2022/07/11 05:08:20;;;;;;;18.52;8.48;;;;;;;20.31;55.94;100154.16;5045631;28;20096;-69
2022/07/11 05:10:48;;;;;;;17.48;10.52;;;;;;;20.47;55.89;100172.06;5041013;28;20120;-70
2022/07/11 05:13:14;;;;;;;14.25;8.23;;;;;;;20.38;55.89;100150.72;5052053;28;20124;-68
2022/07/11 05:15:42;;;;;;;19.80;10.13;;;;;;;20.34;55.81;100156.25;5042168;28;20076;-68
2022/07/11 05:18:09;;;;;;;18.65;8.68;;;;;;;20.51;55.94;100183.56;5033551;28;20077;-68
2022/07/11 05:20:37;;;;;;;15.60;7.65;;;;;;;20.11;56.05;100136.91;5037914;28;20053;-69
2022/07/11 05:23:04;;;;;;;25.55;8.50;;;;;;;20.40;55.91;100177.53;5029167;28;20045;-69
2022/07/11 05:25:30;;;;;;;20.55;7.97;;;;;;;20.01;55.87;100133.72;5047743;28;20080;-70
2022/07/11 05:27:57;;;;;;;23.08;8.73;;;;;;;20.34;55.84;100201.63;5032595;28;20128;-70
2022/07/11 05:30:25;;;;;;;19.33;8.63;;;;;;;20.23;56.16;100160.75;5033272;28;20483;-69
2022/07/11 05:32:52;;;;;;;18.00;9.48;;;;;;;20.34;56.14;100185.47;5036417;28;20080;-71
2022/07/11 05:35:19;;;;;;;16.40;8.93;;;;;;;20.26;56.12;100165.72;5035784;28;20760;-70
2022/07/11 05:37:46;;;;;;;16.80;8.27;;;;;;;20.31;56.16;100180.50;5038098;28;20053;-70
2022/07/11 05:40:13;;;;;;;19.88;9.38;;;;;;;20.27;56.29;100173.88;5045410;28;20164;-70
2022/07/11 05:42:40;;;;;;;23.65;9.90;;;;;;;20.43;56.49;100187.34;5042515;28;20128;-72
2022/07/11 05:45:08;;;;;;;21.45;9.65;;;;;;;20.38;56.37;100168.56;5034006;28;20107;-69
2022/07/11 05:47:35;;;;;;;17.75;9.98;;;;;;;20.35;56.30;100158.75;5038474;28;20080;-68
2022/07/11 05:50:03;;;;;;;15.50;8.70;;;;;;;20.39;56.21;100175.06;5043516;28;20522;-70
2022/07/11 05:52:30;;;;;;;18.58;8.75;;;;;;;20.36;55.86;100182.25;5039032;28;20529;-71
2022/07/11 05:54:57;;;;;;;16.15;9.38;;;;;;;20.39;56.03;100187.22;5049377;28;20080;-71
2022/07/11 05:57:24;;;;;;;19.73;9.68;;;;;;;20.26;56.37;100172.22;5041861;28;20089;-71
2022/07/11 05:59:51;;;;;;;20.02;9.85;;;;;;;20.17;56.03;100157.34;5046980;28;20469;-71
2022/07/11 06:02:21;;;;;;;18.10;9.93;;;;;;;20.33;56.32;100178.13;5042718;28;20136;-70
2022/07/11 06:04:48;;;;;;;17.48;9.80;;;;;;;20.40;56.40;100182.38;5038646;28;20056;-70
2022/07/11 06:08:40;;;;;;;25.10;10.43;;;;;;;20.42;56.37;100192.19;5036204;28;20507;-71
2022/07/11 06:10:01;;;;;;;18.80;9.35;;;;;;;20.35;56.43;100181.44;5033403;28;20081;-71
2022/07/11 06:12:28;;;;;;;15.65;9.70;;;;;;;20.26;56.55;100168.56;5038265;28;20111;-70
2022/07/11 06:14:55;;;;;;;14.55;8.35;;;;;;;20.43;56.48;100188.16;5044757;28;20124;-71
2022/07/11 06:17:22;;;;;;;15.55;9.60;;;;;;;20.48;56.59;100184.28;5045592;28;20519;-70
2022/07/11 06:19:49;;;;;;;22.02;8.05;;;;;;;20.48;56.52;100178.59;5038534;28;20046;-70
2022/07/11 06:22:16;;;;;;;18.23;7.63;;;;;;;20.57;56.46;100190.66;5038768;28;20102;-70
2022/07/11 06:24:50;;;;;;;22.08;9.15;;;;;;;20.63;56.38;100185.56;5046674;28;20049;-71
2022/07/11 06:27:17;;;;;;;21.85;8.52;;;;;;;20.62;56.23;100201.78;5048150;28;20076;-71
2022/07/11 06:29:44;;;;;;;17.52;8.90;;;;;;;20.49;56.34;100171.72;5048839;28;20095;-70
2022/07/11 06:32:11;;;;;;;20.23;8.50;;;;;;;20.74;56.16;100189.56;5039302;28;20571;-71
2022/07/11 06:34:38;;;;;;;16.92;9.95;;;;;;;20.73;56.27;100171.72;5041782;28;20129;-71
2022/07/11 06:37:05;;;;;;;18.00;9.30;;;;;;;20.91;55.99;100199.81;5036596;28;20107;-70
2022/07/11 06:39:32;;;;;;;18.30;9.50;;;;;;;20.91;55.85;100192.13;5035163;28;20049;-70
2022/07/11 06:41:59;;;;;;;15.98;8.25;;;;;;;20.98;55.98;100198.00;5038063;28;20853;-70
2022/07/11 06:44:26;;;;;;;18.25;10.30;;;;;;;21.10;55.80;100210.53;5045020;28;20091;-71
2022/07/11 06:46:54;;;;;;;20.10;10.43;;;;;;;21.09;55.72;100208.84;5039542;28;20057;-71
2022/07/11 06:49:21;;;;;;;13.00;8.55;;;;;;;21.04;55.53;100209.94;5035665;28;20138;-71
2022/07/11 06:51:48;;;;;;;21.25;10.07;;;;;;;21.09;55.60;100220.22;5043982;28;20144;-71
2022/07/11 06:54:15;;;;;;;14.63;8.98;;;;;;;21.16;55.40;100214.75;5045038;28;20388;-71
2022/07/11 06:56:42;;;;;;;17.98;9.07;;;;;;;21.11;55.39;100210.16;5044914;28;20147;-71
2022/07/11 06:59:09;;;;;;;24.17;11.02;;;;;;;21.17;55.24;100222.09;5044389;28;20164;-71
2022/07/11 07:01:37;;;;;;;14.48;9.68;;;;;;;21.18;55.11;100223.75;5041978;28;20454;-72
2022/07/11 07:04:04;;;;;;;17.27;8.82;;;;;;;21.14;55.19;100217.13;5045263;28;20045;-71
2022/07/11 07:06:31;;;;;;;18.55;8.52;;;;;;;21.24;55.14;100225.13;5040861;28;20053;-71
2022/07/11 07:08:58;;;;;;;21.27;9.02;;;;;;;21.20;55.13;100232.75;5043719;28;20469;-71
2022/07/11 07:11:25;;;;;;;17.42;8.70;;;;;;;21.16;55.02;100240.28;5036394;28;20077;-71
2022/07/11 07:13:51;;;;;;;19.52;10.10;;;;;;;21.08;55.18;100215.72;5075965;28;20132;-71
2022/07/11 07:16:18;;;;;;;17.17;9.10;;;;;;;21.20;55.17;100241.25;5041401;28;20156;-71
2022/07/11 07:18:45;;;;;;;16.05;8.40;;;;;;;21.12;54.87;100234.50;5040796;28;20702;-71
2022/07/11 07:21:13;;;;;;;21.30;8.45;;;;;;;21.19;55.34;100233.91;5046877;28;20507;-71
2022/07/11 07:23:40;;;;;;;19.58;7.75;;;;;;;21.34;55.25;100243.69;5046644;28;20136;-71
2022/07/11 07:26:07;;;;;;;21.40;8.85;;;;;;;21.44;54.97;100238.34;5051177;28;20124;-72
2022/07/11 07:28:34;;;;;;;17.75;7.93;;;;;;;21.50;54.84;100242.59;5043271;28;20132;-72
2022/07/11 07:31:01;;;;;;;13.38;8.27;;;;;;;21.59;55.05;100225.38;5043571;28;20075;-71
2022/07/11 07:33:28;;;;;;;15.95;8.55;;;;;;;21.86;54.62;100234.22;5040526;28;20045;-71
2022/07/11 07:36:11;;;;;;;14.68;8.32;;;;;;;22.25;53.92;100249.50;5037625;28;20057;-72
2022/07/11 07:38:39;;;;;;;13.60;7.15;;;;;;;22.23;53.26;100166.56;5037739;28;20041;-71
2022/07/11 07:41:06;;;;;;;14.88;7.47;;;;;;;23.10;52.72;100238.53;5042596;28;20059;-71
2022/07/11 07:43:33;;;;;;;16.27;8.10;;;;;;;23.12;52.34;100231.28;5040079;28;20160;-72
2022/07/11 07:46:00;;;;;;;15.40;8.88;;;;;;;23.19;52.79;100242.00;5046528;28;20127;-72
2022/07/11 07:48:27;;;;;;;18.17;8.93;;;;;;;23.21;51.78;100188.31;5037754;28;20103;-71
2022/07/11 07:50:59;;;;;;;15.98;7.35;;;;;;;23.77;51.74;100244.84;5040439;28;20060;-71
2022/07/11 07:53:26;;;;;;;15.35;7.93;;;;;;;23.80;51.59;100238.41;5043921;28;20040;-71
2022/07/11 07:55:53;;;;;;;14.82;8.10;;;;;;;24.16;50.99;100250.47;5046548;28;20090;-72
2022/07/11 07:58:20;;;;;;;18.85;8.02;;;;;;;24.47;50.36;100237.16;5044350;28;20102;-71
2022/07/11 08:03:32;;;;;;;16.67;7.70;;;;;;;25.20;48.87;100232.97;5036160;28;20135;-71
2022/07/11 08:05:59;;;;;;;15.88;7.43;;;;;;;25.43;48.76;100244.28;5040661;28;20087;-71
2022/07/11 08:08:26;;;;;;;12.65;6.85;;;;;;;25.49;48.43;100256.22;5041939;28;20128;-73
2022/07/11 08:10:53;;;;;;;13.70;7.60;;;;;;;25.63;48.46;100256.38;5043917;28;20072;-71
2022/07/11 08:13:39;;;;;;;14.57;7.70;;;;;;;25.96;47.43;100238.41;5038559;28;20045;-71
2022/07/11 08:16:07;;;;;;;13.15;7.57;;;;;;;26.43;47.04;100244.56;5036684;28;20132;-71
2022/07/11 08:18:34;;;;;;;12.80;6.65;;;;;;;26.61;46.75;100247.59;5044039;28;20407;-71
2022/07/11 08:21:01;;;;;;;15.35;8.27;;;;;;;27.09;46.05;100245.47;5037390;28;20049;-70
2022/07/11 08:23:28;;;;;;;21.67;7.40;;;;;;;27.50;45.01;100228.06;5035796;28;20057;-71
2022/07/11 08:25:55;;;;;;;12.43;7.18;;;;;;;27.85;44.63;100232.31;5038634;28;20132;-70
2022/07/11 08:28:22;;;;;;;13.95;8.32;;;;;;;28.19;43.66;100246.31;5040653;28;20508;-70
2022/07/11 08:30:49;;;;;;;16.20;8.48;;;;;;;27.94;43.30;100241.34;5039219;28;20136;-70
2022/07/11 08:33:16;;;;;;;16.50;8.63;;;;;;;26.99;44.04;100233.94;5038164;28;20519;-70
2022/07/11 08:35:42;;;;;;;14.10;7.65;;;;;;;26.68;45.03;100251.34;5040342;28;20076;-70
2022/07/11 08:38:10;;;;;;;13.95;8.35;;;;;;;26.54;45.37;100259.81;5046928;28;20559;-71
2022/07/11 08:40:40;;;;;;;15.95;8.05;;;;;;;26.81;44.86;100230.97;5038211;28;20562;-70
2022/07/11 08:43:15;;;;;;;10.13;7.00;;;;;;;27.36;44.16;100246.03;5044028;28;20603;-71
2022/07/11 08:45:42;;;;;;;15.65;7.75;;;;;;;27.60;43.80;100249.41;5038524;28;20132;-70
2022/07/11 08:48:11;;;;;;;17.17;7.47;;;;;;;27.63;43.66;100217.88;5076500;28;20128;-71
2022/07/11 08:50:38;;;;;;;26.77;8.98;;;;;;;27.93;43.15;100245.44;5033392;28;20465;-70
2022/07/11 08:53:05;;;;;;;13.77;7.32;;;;;;;27.66;43.59;100222.00;5041088;28;20123;-70
2022/07/11 08:55:40;;;;;;;12.20;6.72;;;;;;;27.67;43.35;100225.69;5040436;28;20809;-71
2022/07/11 08:58:07;;;;;;;13.63;7.53;;;;;;;28.19;42.99;100241.38;5032159;28;20052;-71
2022/07/11 09:00:35;;;;;;;20.40;6.90;;;;;;;28.61;42.09;100234.03;5039742;28;20084;-71
2022/07/11 09:03:03;;;;;;;10.50;6.85;;;;;;;28.98;41.14;100235.63;5044346;28;20124;-71
2022/07/11 09:05:31;;;;;;;16.23;7.85;;;;;;;28.96;40.91;100233.19;5042291;28;20500;-71
2022/07/11 09:07:58;;;;;;;13.88;6.95;;;;;;;28.55;41.49;100225.03;5041617;28;20139;-71
2022/07/11 09:10:25;;;;;;;11.63;6.93;;;;;;;28.68;41.28;100230.31;5040431;28;20135;-71
2022/07/11 09:12:59;;;;;;;13.52;7.05;;;;;;;29.02;40.52;100237.28;5042401;28;20051;-71
2022/07/11 09:15:33;;;;;;;12.73;6.85;;;;;;;29.28;40.45;100226.53;5042632;28;20080;-72
2022/07/11 09:18:00;;;;;;;17.05;7.95;;;;;;;29.58;40.24;100240.38;5040622;28;20053;-70
2022/07/11 09:25:19;;;;;;;14.48;7.15;;;;;;;29.72;39.26;100228.00;5039159;28;20068;-72
2022/07/11 09:26:06;;;;;;;12.32;6.90;;;;;;;30.02;38.92;100230.31;5036395;28;20095;-71
2022/07/11 09:28:33;;;;;;;11.60;7.78;;;;;;;30.19;38.92;100234.31;5044212;28;20140;-71
2022/07/11 09:31:15;;;;;;;12.73;7.38;;;;;;;30.12;38.61;100232.28;5042325;28;20606;-71
2022/07/11 09:34:02;;;;;;;15.50;6.43;;;;;;;29.89;39.47;100226.28;5042705;28;20054;-71
2022/07/11 09:36:38;;;;;;;16.73;7.05;;;;;;;30.18;38.90;100226.91;5038270;28;20123;-72
2022/07/11 09:39:08;;;;;;;12.57;7.07;;;;;;;30.68;38.38;100232.25;5039899;28;20048;-72
2022/07/11 09:41:35;;;;;;;;;;;;;;;30.66;38.82;100240.50;5044376;28;20144;-71
2022/07/11 09:44:09;;;;;;;12.98;6.95;;;;;;;30.92;38.29;100248.50;5034781;28;20020;-71
2022/07/11 09:46:37;;;;;;;14.77;6.72;;;;;;;31.03;37.96;100256.25;5045285;28;20120;-70
2022/07/11 09:49:04;;;;;;;14.18;7.00;;;;;;;30.93;37.40;100209.78;5046083;28;20075;-71
2022/07/11 09:51:33;;;;;;;11.80;6.30;;;;;;;31.41;36.84;100210.09;5044059;28;20079;-70
2022/07/11 09:54:00;;;;;;;;;;;;;;;31.58;37.87;100223.47;5039838;28;20136;-71
2022/07/11 09:56:39;;;;;;;13.75;6.93;;;;;;;31.86;36.86;100220.19;5034363;28;19960;-71
2022/07/11 09:59:23;;;;;;;17.40;7.05;;;;;;;31.96;36.13;100214.69;5036644;28;20052;-70
2022/07/11 10:01:50;;;;;;;16.63;6.18;;;;;;;32.20;35.92;100219.25;5040416;28;20099;-71
2022/07/11 10:04:17;;;;;;;19.80;6.45;;;;;;;32.36;35.76;100217.78;5038137;28;20132;-72
2022/07/11 10:06:44;;;;;;;13.90;6.65;;;;;;;32.34;35.76;100235.56;5042156;28;20052;-70
2022/07/11 10:09:11;;;;;;;16.63;6.93;;;;;;;32.02;35.49;100227.41;5040542;28;20073;-71
2022/07/11 10:11:38;;;;;;;16.38;7.18;;;;;;;31.91;35.37;100227.56;5040008;28;20147;-71
2022/07/11 10:14:07;;;;;;;13.38;6.13;;;;;;;32.07;34.99;100241.38;5036089;28;20132;-71
2022/07/11 10:16:34;;;;;;;11.45;6.93;;;;;;;32.17;35.25;100246.16;5039301;28;20057;-71
2022/07/11 10:19:36;;;;;;;11.65;7.45;;;;;;;32.06;35.33;100228.16;5041805;28;20134;-70
2022/07/11 10:22:14;;;;;;;15.93;6.13;;;;;;;31.77;35.30;100228.56;5043285;28;20061;-70
2022/07/11 10:25:19;;;;;;;11.52;5.38;;;;;;;31.10;36.72;100236.78;5040044;28;20152;-70
2022/07/11 10:28:09;;;;;;;9.98;5.20;;;;;;;30.56;36.78;100224.13;5035920;28;20136;-70
2022/07/11 10:30:52;;;;;;;14.75;5.63;;;;;;;30.04;37.28;100238.50;5040412;28;20144;-70
2022/07/11 10:33:19;;;;;;;14.88;6.28;;;;;;;29.27;38.06;100196.13;5033542;28;20508;-70
2022/07/11 10:35:49;;;;;;;19.38;6.72;;;;;;;29.50;38.00;100238.75;5043725;28;20045;-71
2022/07/11 10:38:17;;;;;;;15.45;5.55;;;;;;;29.25;38.55;100222.44;5038700;28;20049;-71
2022/07/11 10:40:45;;;;;;;12.10;6.80;;;;;;;29.14;38.29;100240.97;5036808;28;20140;-70
2022/07/11 10:43:19;;;;;;;11.03;5.80;;;;;;;28.90;38.60;100229.06;5033688;28;20787;-71
2022/07/11 10:46:08;;;;;;;12.15;5.43;;;;;;;28.80;38.67;100252.91;5032946;28;20087;-70
2022/07/11 10:49:04;;;;;;;14.45;5.57;;;;;;;28.44;39.28;100252.91;5029823;28;20054;-70
2022/07/11 10:51:37;;;;;;;12.68;5.97;;;;;;;28.46;39.52;100256.19;5035952;28;20077;-70
2022/07/11 10:54:42;;;;;;;14.00;5.88;;;;;;;28.20;39.97;100248.75;5036757;28;20384;-70
2022/07/11 10:57:13;;;;;;;16.70;5.55;;;;;;;28.02;39.91;100253.66;5034645;28;20153;-70
2022/07/11 10:59:59;;;;;;;10.13;5.38;;;;;;;27.93;40.29;100254.03;5034989;28;20081;-71
2022/07/11 11:02:27;;;;;;;13.93;5.85;;;;;;;28.10;40.34;100250.41;5045386;28;20128;-70
2022/07/11 11:04:58;;;;;;;11.48;4.82;;;;;;;28.56;39.68;100261.13;5033268;28;20057;-70
2022/07/11 11:07:36;;;;;;;11.38;5.93;;;;;;;29.01;39.51;100252.88;5045004;28;20517;-71
2022/07/11 11:10:17;;;;;;;10.55;4.35;;;;;;;29.14;39.34;100190.03;5035847;28;21284;-71
2022/07/11 11:13:09;;;;;;;7.90;4.45;;;;;;;29.83;38.70;100256.72;5038673;28;20066;-71
2022/07/11 11:15:56;;;;;;;15.13;5.13;;;;;;;29.72;38.90;100260.47;5037596;28;20049;-71
2022/07/11 11:18:23;;;;;;;14.32;5.50;;;;;;;29.69;39.01;100272.81;5038086;28;20064;-71
2022/07/11 11:20:59;;;;;;;10.27;5.20;;;;;;;29.62;38.44;100257.66;5036659;28;20053;-72
2022/07/11 11:23:44;;;;;;;10.35;4.82;;;;;;;29.29;38.91;100216.66;5033499;28;20155;-71
2022/07/11 11:26:21;;;;;;;14.02;5.53;;;;;;;29.64;38.86;100246.53;5031507;28;20389;-71
2022/07/11 11:28:56;;;;;;;10.18;5.10;;;;;;;29.67;38.57;100260.09;5033827;28;20136;-71
2022/07/11 11:31:24;;;;;;;12.20;5.57;;;;;;;29.65;38.84;100263.41;5044599;28;20507;-71
2022/07/11 11:33:52;;;;;;;9.63;4.43;;;;;;;29.64;38.51;100260.91;5042425;28;20463;-72